USPP 210300Z 24005MPS CAVOK 16/04 Q1009 R21/090060 NOSIG RMK QFE746
QNH:(hPa/inHg/mmHg)1009 / 29.8 / 757
QFE:(hPa/inHg/mmHg)994 / 29.35 / 746
Temperature16
Dew Point4
Visibility> 10000
WeatherCAVOK
Cloud Cover
Transition Altitude3700 ft.
Transition LevelFL60
SQUAWK